Eships Dana — ZDJT6 — position and weather

sailwx.info

Track history (hours):
 
Tides and Currents Weather Stations Pressure Air Temp Water Temp Dewpoint Dewpoint Depression Visibility Wind Speed Wind Dir Waves Ship Positions

Eships Dana

Last reported at 2016-Aug-26 07:29 UTC. Time now 2016-Aug-26 08:31 UTC.
Position N 54°16' E 000°49'.

Length 116 m; draft 5.6 m.

Type: Ship (hazmat cat A). MMSI: 236566000.

Date/timePositionNaut miles runAvg speedWind from/ knotsBaromVisibWave heightAir tempDewpointWater temp
2016-Aug-26 07:29N 54°16' E 000°49'9011.3
2016-Aug-25 23:33N 53°16' E 002°43'2713.0
2016-Aug-25 21:26N 52°49' E 002°41'1214.1
2016-Aug-25 20:33N 52°36' E 002°42'1313.0
2016-Aug-25 19:33N 52°25' E 002°51'1912.9
2016-Aug-25 18:05N 52°16' E 003°19'1013.2
2016-Aug-25 17:22N 52°10' E 003°30'1012.8
2016-Aug-25 16:33N 52°05' E 003°45'1111.5
2016-Aug-25 15:33N 51°60' E 004°02'7 7.2
2016-Aug-25 14:32N 51°55' E 004°12'0 0.1
2016-Aug-25 13:29N 51°55' E 004°12'0 0.0
2016-Aug-25 12:32N 51°55' E 004°12'0 0.0
2016-Aug-25 10:32N 51°55' E 004°12'0 0.0
2016-Aug-25 09:23N 51°55' E 004°12'0 0.0
2016-Aug-25 08:17N 51°55' E 004°12'0 0.0
2016-Aug-25 07:27N 51°55' E 004°12'0 0.0
2016-Aug-25 06:29N 51°55' E 004°12'0 0.0
2016-Aug-25 04:27N 51°55' E 004°12'0 0.0
2016-Aug-25 03:30N 51°55' E 004°12'0 0.0
2016-Aug-25 02:24N 51°55' E 004°12'0 0.0
2016-Aug-25 01:26N 51°55' E 004°12'0 0.0
2016-Aug-25 00:29N 51°55' E 004°12'0 0.0
2016-Aug-24 23:23N 51°55' E 004°12'0 0.0
2016-Aug-24 22:17N 51°55' E 004°12'0 0.0
2016-Aug-24 21:32N 51°55' E 004°12'0 0.0
2016-Aug-24 20:33N 51°55' E 004°12'0 0.0
2016-Aug-24 19:29N 51°55' E 004°12'0 0.0
2016-Aug-24 18:24N 51°55' E 004°12'0 0.0
2016-Aug-24 17:29N 51°55' E 004°12'0 0.0
2016-Aug-24 16:29N 51°55' E 004°12'0 0.0
2016-Aug-24 15:33N 51°55' E 004°12'0 0.0
2016-Aug-24 14:29N 51°55' E 004°12'0 0.0
2016-Aug-24 13:29N 51°55' E 004°12'0 0.1
2016-Aug-24 12:30N 51°55' E 004°12'5 5.7
2016-Aug-24 11:33N 51°59' E 004°05'9 9.2
2016-Aug-24 10:34N 52°01' E 003°51'9 8.5
2016-Aug-24 09:33N 52°05' E 003°38'1110.8
2016-Aug-24 08:32N 52°09' E 003°22'1212.5
2016-Aug-24 07:33N 52°17' E 003°06'3612.1
2016-Aug-24 04:33N 52°49' E 002°40'1313.4
2016-Aug-24 03:33N 53°03' E 002°37'1413.8
2016-Aug-24 02:34N 53°16' E 002°42'7310.4
2016-Aug-23 19:33N 54°05' E 001°11'1414.0
2016-Aug-23 18:33N 54°07' E 000°47'1312.7
2016-Aug-23 17:33N 54°17' E 000°34'1413.8
2016-Aug-23 16:33N 54°29' E 000°23'1313.0
2016-Aug-23 15:33N 54°40' E 000°10'1313.0
2016-Aug-23 14:33N 54°50' W 000°04'1312.9
2016-Aug-23 13:31N 55°00' W 000°19'2613.0
2016-Aug-23 11:33N 55°20' W 000°46'1413.1
2016-Aug-23 10:28N 55°31' W 001°03'1313.7
2016-Aug-23 09:33N 55°41' W 001°17'1413.8
2016-Aug-23 08:33N 55°50' W 001°35'1414.4
2016-Aug-23 07:33N 55°58' W 001°56'1514.7
2016-Aug-23 06:33N 56°04' W 002°19'1414.2
2016-Aug-23 05:33N 56°06' W 002°45'1313.1
2016-Aug-23 04:33N 56°03' W 003°07'1211.5
2016-Aug-23 03:32N 56°01' W 003°28'2 0.1
2016-Aug-21 22:30N 56°00' W 003°26'1011.0
2016-Aug-21 21:34N 56°03' W 003°08'2 2.2
2016-Aug-21 20:31N 56°06' W 003°07'0 0.0
2016-Aug-21 19:31N 56°06' W 003°07'0 0.0
2016-Aug-21 18:31N 56°06' W 003°07'0 0.0
2016-Aug-21 17:31N 56°06' W 003°07'0 0.0
2016-Aug-21 16:22N 56°06' W 003°07'0 0.0
2016-Aug-21 15:31N 56°06' W 003°07'0 0.0
2016-Aug-21 14:31N 56°06' W 003°07'0 0.0
2016-Aug-21 13:31N 56°06' W 003°07'0 0.0
2016-Aug-21 12:31N 56°06' W 003°07'0 0.0
2016-Aug-21 11:31N 56°06' W 003°07'0 0.0
2016-Aug-21 10:31N 56°06' W 003°07'0 0.0
2016-Aug-21 09:31N 56°06' W 003°07'0 0.0
2016-Aug-21 08:31N 56°06' W 003°07'0 0.0
2016-Aug-21 07:31N 56°06' W 003°07'0 0.0
2016-Aug-21 06:31N 56°06' W 003°07'0 0.0
2016-Aug-21 05:28N 56°06' W 003°07'0 0.0
2016-Aug-21 04:25N 56°06' W 003°07'0 0.0
2016-Aug-21 03:31N 56°06' W 003°07'0 0.0
2016-Aug-21 02:31N 56°06' W 003°07'0 0.1
2016-Aug-21 01:31N 56°06' W 003°07'0 0.0
2016-Aug-21 00:31N 56°06' W 003°07'0 0.0
2016-Aug-20 23:31N 56°06' W 003°07'0 0.2
2016-Aug-20 22:33N 56°05' W 003°07'6 5.7
2016-Aug-20 21:34N 56°05' W 002°57'1312.8
2016-Aug-20 20:33N 56°07' W 002°34'1413.8
2016-Aug-20 19:33N 56°02' W 002°12'1413.7
2016-Aug-20 18:33N 55°56' W 001°49'4013.2
2016-Aug-20 15:30N 55°29' W 000°56'1313.7
2016-Aug-20 14:33N 55°20' W 000°40'1414.1
2016-Aug-20 13:33N 55°07' W 000°29'1514.5
2016-Aug-20 12:32N 54°56' W 000°12'1515.4
2016-Aug-20 11:33N 54°44' E 000°04'1515.3
2016-Aug-20 10:33N 54°32' E 000°20'1515.3
2016-Aug-20 09:33N 54°18' E 000°32'1714.4
2016-Aug-20 08:23N 54°04' E 000°46'5512.6
2016-Aug-20 04:03N 53°25' E 001°53'814.8
2016-Aug-20 03:31N 53°19' E 002°01'1915.2
2016-Aug-20 02:17N 53°06' E 002°23'7512.9
2016-Aug-19 20:28N 51°52' E 002°40'1213.3
2016-Aug-19 19:33N 51°46' E 002°57'1110.8
2016-Aug-19 18:33N 51°42' E 003°13'1414.4
2016-Aug-19 17:33N 51°29' E 003°03'9 9.4
2016-Aug-19 16:33N 51°25' E 003°16'1413.9
2016-Aug-19 15:34N 51°26' E 003°38'1111.4
2016-Aug-19 14:33N 51°22' E 003°55'6 6.2
2016-Aug-19 13:33N 51°22' E 004°05'8 8.2
2016-Aug-19 12:33N 51°18' E 004°16'2 2.3
2016-Aug-19 11:33N 51°16' E 004°14'1 0.8
2016-Aug-19 10:33N 51°17' E 004°14'0 0.0
2016-Aug-19 09:30N 51°17' E 004°14'0 0.0
2016-Aug-19 08:21N 51°17' E 004°14'0 0.0
2016-Aug-19 07:24N 51°17' E 004°14'0 0.0
2016-Aug-19 06:24N 51°17' E 004°14'0 0.0
2016-Aug-19 04:30N 51°17' E 004°14'0 0.0
2016-Aug-19 03:33N 51°17' E 004°14'0 0.0
2016-Aug-19 02:33N 51°17' E 004°14'0 0.0
2016-Aug-19 01:33N 51°17' E 004°14'0 0.0
2016-Aug-19 00:30N 51°17' E 004°14'0 0.0
2016-Aug-18 23:24N 51°17' E 004°14'0 0.0
2016-Aug-18 22:33N 51°17' E 004°14'0 0.0
2016-Aug-18 21:33N 51°17' E 004°14'0 0.0
2016-Aug-18 20:15N 51°17' E 004°14'0 0.0
2016-Aug-18 19:33N 51°17' E 004°14'0 0.0
2016-Aug-18 18:33N 51°17' E 004°14'0 0.0
2016-Aug-18 17:21N 51°17' E 004°14'0 0.0
2016-Aug-18 16:27N 51°17' E 004°14'0 0.0
2016-Aug-18 15:33N 51°17' E 004°14'0 0.0
2016-Aug-18 14:33N 51°17' E 004°14'0 0.0
2016-Aug-18 13:33N 51°17' E 004°14'0 0.0
2016-Aug-18 12:33N 51°17' E 004°14'0 0.0
2016-Aug-18 11:30N 51°17' E 004°14'0 0.0
2016-Aug-18 10:30N 51°17' E 004°14'0 0.0
2016-Aug-18 08:24N 51°17' E 004°14'0 0.0
2016-Aug-18 07:24N 51°17' E 004°14'0 0.0
2016-Aug-18 06:21N 51°17' E 004°14'0 0.0
2016-Aug-18 05:33N 51°17' E 004°14'0 0.0
2016-Aug-18 04:33N 51°17' E 004°14'0 0.0
2016-Aug-18 03:30N 51°17' E 004°14'0 0.0
2016-Aug-18 02:27N 51°17' E 004°14'0 0.0
2016-Aug-18 01:21N 51°17' E 004°14'0 0.0
2016-Aug-18 00:18N 51°17' E 004°14'0 0.0
2016-Aug-17 23:30N 51°17' E 004°14'0 0.0
2016-Aug-17 22:18N 51°17' E 004°14'0 0.0
2016-Aug-17 21:33N 51°17' E 004°14'0 0.0
2016-Aug-17 20:30N 51°17' E 004°14'0 0.0
2016-Aug-17 19:30N 51°17' E 004°14'0 0.0
2016-Aug-17 18:27N 51°17' E 004°14'0 0.0
2016-Aug-17 16:33N 51°17' E 004°14'0 0.0
2016-Aug-17 15:30N 51°17' E 004°14'0 0.0
2016-Aug-17 14:33N 51°17' E 004°14'0 0.0
2016-Aug-17 13:30N 51°17' E 004°14'0 0.2
2016-Aug-17 12:34N 51°17' E 004°14'1 0.7
2016-Aug-17 11:34N 51°17' E 004°15'2 1.8
2016-Aug-17 10:34N 51°18' E 004°16'6 6.1
2016-Aug-17 09:34N 51°23' E 004°10'8 8.2
2016-Aug-17 08:33N 51°23' E 003°57'1010.3
2016-Aug-17 07:33N 51°26' E 003°41'9 9.2
2016-Aug-17 06:33N 51°25' E 003°26'1211.9
2016-Aug-17 05:33N 51°24' E 003°07'8 7.5
2016-Aug-17 04:33N 51°32' E 003°06'1211.7
2016-Aug-17 03:32N 51°42' E 003°16'10 9.7
2016-Aug-17 02:31N 51°46' E 003°02'8 7.6
2016-Aug-17 01:31N 51°50' E 002°51'1111.6
2016-Aug-17 00:32N 51°58' E 002°38'1211.7
2016-Aug-16 23:33N 52°09' E 002°39'1312.7
2016-Aug-16 22:33N 52°21' E 002°48'2814.0
2016-Aug-16 20:32N 52°46' E 003°08'1914.4
2016-Aug-16 19:14N 53°03' E 003°20'1114.5
2016-Aug-16 18:27N 53°14' E 003°26'1814.3
2016-Aug-16 17:12N 53°31' E 003°34'1413.8
2016-Aug-16 16:11N 53°45' E 003°43'913.9
2016-Aug-16 15:31N 53°50' E 003°55'1914.2
2016-Aug-16 14:12N 54°03' E 004°19'1614.6
2016-Aug-16 13:08N 54°18' E 004°20'914.2
2016-Aug-16 12:28N 54°27' E 004°20'1414.5
2016-Aug-16 11:32N 54°41' E 004°21'1414.4
2016-Aug-16 10:33N 54°55' E 004°21'1614.4
2016-Aug-16 09:27N 55°11' E 004°21'  
Track history (hours):
 
Tides and Currents Weather Stations Pressure Air Temp Water Temp Dewpoint Dewpoint Depression Visibility Wind Speed Wind Dir Waves Ship Positions

Eships Dana

Last reported at 2016-Aug-26 07:29 UTC. Time now 2016-Aug-26 08:31 UTC.
Position N 54°16' E 000°49'.

Length 116 m; draft 5.6 m.

Type: Ship (hazmat cat A). MMSI: 236566000.

Date/timePositionNaut miles runAvg speedWind from/ knotsBaromVisibWave heightAir tempDewpointWater temp
2016-Aug-26 07:29N 54°16' E 000°49'9011.3
2016-Aug-25 23:33N 53°16' E 002°43'2713.0
2016-Aug-25 21:26N 52°49' E 002°41'1214.1
2016-Aug-25 20:33N 52°36' E 002°42'1313.0
2016-Aug-25 19:33N 52°25' E 002°51'1912.9
2016-Aug-25 18:05N 52°16' E 003°19'1013.2
2016-Aug-25 17:22N 52°10' E 003°30'1012.8
2016-Aug-25 16:33N 52°05' E 003°45'1111.5
2016-Aug-25 15:33N 51°60' E 004°02'7 7.2
2016-Aug-25 14:32N 51°55' E 004°12'0 0.1
2016-Aug-25 13:29N 51°55' E 004°12'0 0.0
2016-Aug-25 12:32N 51°55' E 004°12'0 0.0
2016-Aug-25 10:32N 51°55' E 004°12'0 0.0
2016-Aug-25 09:23N 51°55' E 004°12'0 0.0
2016-Aug-25 08:17N 51°55' E 004°12'0 0.0
2016-Aug-25 07:27N 51°55' E 004°12'0 0.0
2016-Aug-25 06:29N 51°55' E 004°12'0 0.0
2016-Aug-25 04:27N 51°55' E 004°12'0 0.0
2016-Aug-25 03:30N 51°55' E 004°12'0 0.0
2016-Aug-25 02:24N 51°55' E 004°12'0 0.0
2016-Aug-25 01:26N 51°55' E 004°12'0 0.0
2016-Aug-25 00:29N 51°55' E 004°12'0 0.0
2016-Aug-24 23:23N 51°55' E 004°12'0 0.0
2016-Aug-24 22:17N 51°55' E 004°12'0 0.0
2016-Aug-24 21:32N 51°55' E 004°12'0 0.0
2016-Aug-24 20:33N 51°55' E 004°12'0 0.0
2016-Aug-24 19:29N 51°55' E 004°12'0 0.0
2016-Aug-24 18:24N 51°55' E 004°12'0 0.0
2016-Aug-24 17:29N 51°55' E 004°12'0 0.0
2016-Aug-24 16:29N 51°55' E 004°12'0 0.0
2016-Aug-24 15:33N 51°55' E 004°12'0 0.0
2016-Aug-24 14:29N 51°55' E 004°12'0 0.0
2016-Aug-24 13:29N 51°55' E 004°12'0 0.1
2016-Aug-24 12:30N 51°55' E 004°12'5 5.7
2016-Aug-24 11:33N 51°59' E 004°05'9 9.2
2016-Aug-24 10:34N 52°01' E 003°51'9 8.5
2016-Aug-24 09:33N 52°05' E 003°38'1110.8
2016-Aug-24 08:32N 52°09' E 003°22'1212.5
2016-Aug-24 07:33N 52°17' E 003°06'3612.1
2016-Aug-24 04:33N 52°49' E 002°40'1313.4
2016-Aug-24 03:33N 53°03' E 002°37'1413.8
2016-Aug-24 02:34N 53°16' E 002°42'7310.4
2016-Aug-23 19:33N 54°05' E 001°11'1414.0
2016-Aug-23 18:33N 54°07' E 000°47'1312.7
2016-Aug-23 17:33N 54°17' E 000°34'1413.8
2016-Aug-23 16:33N 54°29' E 000°23'1313.0
2016-Aug-23 15:33N 54°40' E 000°10'1313.0
2016-Aug-23 14:33N 54°50' W 000°04'1312.9
2016-Aug-23 13:31N 55°00' W 000°19'2613.0
2016-Aug-23 11:33N 55°20' W 000°46'1413.1
2016-Aug-23 10:28N 55°31' W 001°03'1313.7
2016-Aug-23 09:33N 55°41' W 001°17'1413.8
2016-Aug-23 08:33N 55°50' W 001°35'1414.4
2016-Aug-23 07:33N 55°58' W 001°56'1514.7
2016-Aug-23 06:33N 56°04' W 002°19'1414.2
2016-Aug-23 05:33N 56°06' W 002°45'1313.1
2016-Aug-23 04:33N 56°03' W 003°07'1211.5
2016-Aug-23 03:32N 56°01' W 003°28'2 0.1
2016-Aug-21 22:30N 56°00' W 003°26'1011.0
2016-Aug-21 21:34N 56°03' W 003°08'2 2.2
2016-Aug-21 20:31N 56°06' W 003°07'0 0.0
2016-Aug-21 19:31N 56°06' W 003°07'0 0.0
2016-Aug-21 18:31N 56°06' W 003°07'0 0.0
2016-Aug-21 17:31N 56°06' W 003°07'0 0.0
2016-Aug-21 16:22N 56°06' W 003°07'0 0.0
2016-Aug-21 15:31N 56°06' W 003°07'0 0.0
2016-Aug-21 14:31N 56°06' W 003°07'0 0.0
2016-Aug-21 13:31N 56°06' W 003°07'0 0.0
2016-Aug-21 12:31N 56°06' W 003°07'0 0.0
2016-Aug-21 11:31N 56°06' W 003°07'0 0.0
2016-Aug-21 10:31N 56°06' W 003°07'0 0.0
2016-Aug-21 09:31N 56°06' W 003°07'0 0.0
2016-Aug-21 08:31N 56°06' W 003°07'0 0.0
2016-Aug-21 07:31N 56°06' W 003°07'0 0.0
2016-Aug-21 06:31N 56°06' W 003°07'0 0.0
2016-Aug-21 05:28N 56°06' W 003°07'0 0.0
2016-Aug-21 04:25N 56°06' W 003°07'0 0.0
2016-Aug-21 03:31N 56°06' W 003°07'0 0.0
2016-Aug-21 02:31N 56°06' W 003°07'0 0.1
2016-Aug-21 01:31N 56°06' W 003°07'0 0.0
2016-Aug-21 00:31N 56°06' W 003°07'0 0.0
2016-Aug-20 23:31N 56°06' W 003°07'0 0.2
2016-Aug-20 22:33N 56°05' W 003°07'6 5.7
2016-Aug-20 21:34N 56°05' W 002°57'1312.8
2016-Aug-20 20:33N 56°07' W 002°34'1413.8
2016-Aug-20 19:33N 56°02' W 002°12'1413.7
2016-Aug-20 18:33N 55°56' W 001°49'4013.2
2016-Aug-20 15:30N 55°29' W 000°56'1313.7
2016-Aug-20 14:33N 55°20' W 000°40'1414.1
2016-Aug-20 13:33N 55°07' W 000°29'1514.5
2016-Aug-20 12:32N 54°56' W 000°12'1515.4
2016-Aug-20 11:33N 54°44' E 000°04'1515.3
2016-Aug-20 10:33N 54°32' E 000°20'1515.3
2016-Aug-20 09:33N 54°18' E 000°32'1714.4
2016-Aug-20 08:23N 54°04' E 000°46'5512.6
2016-Aug-20 04:03N 53°25' E 001°53'814.8
2016-Aug-20 03:31N 53°19' E 002°01'1915.2
2016-Aug-20 02:17N 53°06' E 002°23'7512.9
2016-Aug-19 20:28N 51°52' E 002°40'1213.3
2016-Aug-19 19:33N 51°46' E 002°57'1110.8
2016-Aug-19 18:33N 51°42' E 003°13'1414.4
2016-Aug-19 17:33N 51°29' E 003°03'9 9.4
2016-Aug-19 16:33N 51°25' E 003°16'1413.9
2016-Aug-19 15:34N 51°26' E 003°38'1111.4
2016-Aug-19 14:33N 51°22' E 003°55'6 6.2
2016-Aug-19 13:33N 51°22' E 004°05'8 8.2
2016-Aug-19 12:33N 51°18' E 004°16'2 2.3
2016-Aug-19 11:33N 51°16' E 004°14'1 0.8
2016-Aug-19 10:33N 51°17' E 004°14'0 0.0
2016-Aug-19 09:30N 51°17' E 004°14'0 0.0
2016-Aug-19 08:21N 51°17' E 004°14'0 0.0
2016-Aug-19 07:24N 51°17' E 004°14'0 0.0
2016-Aug-19 06:24N 51°17' E 004°14'0 0.0
2016-Aug-19 04:30N 51°17' E 004°14'0 0.0
2016-Aug-19 03:33N 51°17' E 004°14'0 0.0
2016-Aug-19 02:33N 51°17' E 004°14'0 0.0
2016-Aug-19 01:33N 51°17' E 004°14'0 0.0
2016-Aug-19 00:30N 51°17' E 004°14'0 0.0
2016-Aug-18 23:24N 51°17' E 004°14'0 0.0
2016-Aug-18 22:33N 51°17' E 004°14'0 0.0
2016-Aug-18 21:33N 51°17' E 004°14'0 0.0
2016-Aug-18 20:15N 51°17' E 004°14'0 0.0
2016-Aug-18 19:33N 51°17' E 004°14'0 0.0
2016-Aug-18 18:33N 51°17' E 004°14'0 0.0
2016-Aug-18 17:21N 51°17' E 004°14'0 0.0
2016-Aug-18 16:27N 51°17' E 004°14'0 0.0
2016-Aug-18 15:33N 51°17' E 004°14'0 0.0
2016-Aug-18 14:33N 51°17' E 004°14'0 0.0
2016-Aug-18 13:33N 51°17' E 004°14'0 0.0
2016-Aug-18 12:33N 51°17' E 004°14'0 0.0
2016-Aug-18 11:30N 51°17' E 004°14'0 0.0
2016-Aug-18 10:30N 51°17' E 004°14'0 0.0
2016-Aug-18 08:24N 51°17' E 004°14'0 0.0
2016-Aug-18 07:24N 51°17' E 004°14'0 0.0
2016-Aug-18 06:21N 51°17' E 004°14'0 0.0
2016-Aug-18 05:33N 51°17' E 004°14'0 0.0
2016-Aug-18 04:33N 51°17' E 004°14'0 0.0
2016-Aug-18 03:30N 51°17' E 004°14'0 0.0
2016-Aug-18 02:27N 51°17' E 004°14'0 0.0
2016-Aug-18 01:21N 51°17' E 004°14'0 0.0
2016-Aug-18 00:18N 51°17' E 004°14'0 0.0
2016-Aug-17 23:30N 51°17' E 004°14'0 0.0
2016-Aug-17 22:18N 51°17' E 004°14'0 0.0
2016-Aug-17 21:33N 51°17' E 004°14'0 0.0
2016-Aug-17 20:30N 51°17' E 004°14'0 0.0
2016-Aug-17 19:30N 51°17' E 004°14'0 0.0
2016-Aug-17 18:27N 51°17' E 004°14'0 0.0
2016-Aug-17 16:33N 51°17' E 004°14'0 0.0
2016-Aug-17 15:30N 51°17' E 004°14'0 0.0
2016-Aug-17 14:33N 51°17' E 004°14'0 0.0
2016-Aug-17 13:30N 51°17' E 004°14'0 0.2
2016-Aug-17 12:34N 51°17' E 004°14'1 0.7
2016-Aug-17 11:34N 51°17' E 004°15'2 1.8
2016-Aug-17 10:34N 51°18' E 004°16'6 6.1
2016-Aug-17 09:34N 51°23' E 004°10'8 8.2
2016-Aug-17 08:33N 51°23' E 003°57'1010.3
2016-Aug-17 07:33N 51°26' E 003°41'9 9.2
2016-Aug-17 06:33N 51°25' E 003°26'1211.9
2016-Aug-17 05:33N 51°24' E 003°07'8 7.5
2016-Aug-17 04:33N 51°32' E 003°06'1211.7
2016-Aug-17 03:32N 51°42' E 003°16'10 9.7
2016-Aug-17 02:31N 51°46' E 003°02'8 7.6
2016-Aug-17 01:31N 51°50' E 002°51'1111.6
2016-Aug-17 00:32N 51°58' E 002°38'1211.7
2016-Aug-16 23:33N 52°09' E 002°39'1312.7
2016-Aug-16 22:33N 52°21' E 002°48'2814.0
2016-Aug-16 20:32N 52°46' E 003°08'1914.4
2016-Aug-16 19:14N 53°03' E 003°20'1114.5
2016-Aug-16 18:27N 53°14' E 003°26'1814.3
2016-Aug-16 17:12N 53°31' E 003°34'1413.8
2016-Aug-16 16:11N 53°45' E 003°43'913.9
2016-Aug-16 15:31N 53°50' E 003°55'1914.2
2016-Aug-16 14:12N 54°03' E 004°19'1614.6
2016-Aug-16 13:08N 54°18' E 004°20'914.2
2016-Aug-16 12:28N 54°27' E 004°20'1414.5
2016-Aug-16 11:32N 54°41' E 004°21'1414.4
2016-Aug-16 10:33N 54°55' E 004°21'1614.4
2016-Aug-16 09:27N 55°11' E 004°21'  

Dump ship's entire track history